Time;durP1;ratioP1;P1;durP2;ratioP2;P2;SDS_P1;SDS_P2;PMS_P1;PMS_P2;Temp;Humidity;BMP_temperature;BMP_pressure;BME280_temperature;BME280_humidity;BME280_pressure;Samples;Min_cycle;Max_cycle;Signal;HPM_P1;HPM_P2
2022/07/01 00:01:44;;;;;;;7.17;4.97;;;15.90;99.90;;;;;;5032658;28;20455;-80
2022/07/01 00:04:10;;;;;;;7.20;4.77;;;15.90;99.90;;;;;;5033026;28;20421;-81
2022/07/01 00:06:36;;;;;;;6.80;4.83;;;16.00;99.90;;;;;;5032772;28;20473;-80
2022/07/01 00:09:02;;;;;;;5.73;4.03;;;16.00;99.90;;;;;;5034260;28;20820;-81
2022/07/01 00:11:27;;;;;;;7.80;5.33;;;15.90;99.90;;;;;;5033034;28;20394;-81
2022/07/01 00:13:53;;;;;;;7.37;4.67;;;15.90;99.90;;;;;;5032724;28;21007;-80
2022/07/01 00:16:18;;;;;;;10.13;4.90;;;15.90;99.90;;;;;;5032882;28;20181;-82
2022/07/01 00:18:44;;;;;;;8.97;4.80;;;15.80;99.90;;;;;;5032547;28;20227;-80
2022/07/01 00:21:09;;;;;;;8.47;5.20;;;15.80;99.90;;;;;;5033965;28;20196;-80
2022/07/01 00:23:36;;;;;;;7.27;4.20;;;15.80;99.90;;;;;;5033040;28;20180;-80
2022/07/01 00:26:02;;;;;;;8.30;5.43;;;15.80;99.90;;;;;;5034060;28;20176;-80
2022/07/01 00:28:27;;;;;;;8.97;4.90;;;15.80;99.90;;;;;;5032516;28;20958;-81
2022/07/01 00:30:53;;;;;;;7.77;4.87;;;15.80;99.90;;;;;;5033254;28;20191;-81
2022/07/01 00:33:18;;;;;;;9.13;4.30;;;15.80;99.90;;;;;;5032433;28;20246;-82
2022/07/01 00:35:44;;;;;;;8.53;5.27;;;15.80;99.90;;;;;;5034039;28;20172;-81
2022/07/01 00:38:10;;;;;;;9.33;5.80;;;15.90;99.90;;;;;;5034342;28;20224;-81
2022/07/01 00:40:35;;;;;;;7.67;5.10;;;15.80;99.90;;;;;;5034247;28;20587;-80
2022/07/01 00:43:01;;;;;;;8.83;5.27;;;15.80;99.90;;;;;;5033960;28;20664;-83
2022/07/01 00:45:27;;;;;;;7.80;4.70;;;15.80;99.90;;;;;;5034458;28;20233;-83
2022/07/01 00:47:53;;;;;;;11.20;5.90;;;15.80;99.90;;;;;;5034820;28;20431;-82
2022/07/01 00:50:18;;;;;;;14.47;6.90;;;15.80;99.90;;;;;;5034212;28;20192;-82
2022/07/01 00:52:45;;;;;;;9.33;5.80;;;15.80;99.90;;;;;;5034467;28;20220;-83
2022/07/01 00:55:13;;;;;;;9.27;5.90;;;15.80;99.90;;;;;;5034477;28;20648;-82
2022/07/01 00:57:40;;;;;;;10.90;6.47;;;15.90;99.90;;;;;;5033570;28;20446;-81
2022/07/01 01:00:06;;;;;;;11.67;7.27;;;15.80;99.90;;;;;;5034141;28;20796;-82
2022/07/01 01:02:32;;;;;;;9.57;6.10;;;15.90;99.90;;;;;;5034250;28;20469;-83
2022/07/01 01:04:57;;;;;;;9.40;5.97;;;15.90;99.90;;;;;;5033999;28;20427;-83
2022/07/01 01:07:24;;;;;;;10.30;5.90;;;15.90;99.90;;;;;;5035037;28;20236;-84
2022/07/01 01:09:50;;;;;;;10.60;6.90;;;15.80;99.90;;;;;;5034152;28;20188;-83
2022/07/01 01:12:17;;;;;;;14.30;8.33;;;15.80;99.90;;;;;;5036127;28;20430;-83
2022/07/01 01:14:47;;;;;;;11.10;6.47;;;15.90;99.90;;;;;;5035981;28;20418;-81
2022/07/01 01:17:14;;;;;;;10.50;5.70;;;15.70;99.90;;;;;;5033831;28;20442;-81
2022/07/01 01:19:43;;;;;;;11.00;5.90;;;15.70;99.90;;;;;;5034356;28;20981;-82
2022/07/01 01:22:10;;;;;;;15.13;7.07;;;15.70;99.90;;;;;;5035832;28;20887;-83
2022/07/01 01:24:36;;;;;;;10.80;7.07;;;15.70;99.90;;;;;;5035475;28;20426;-82
2022/07/01 01:27:04;;;;;;;12.50;6.97;;;15.70;99.90;;;;;;5034741;28;20422;-83
2022/07/01 01:29:30;;;;;;;12.50;5.67;;;15.70;99.90;;;;;;5035339;28;20415;-81
2022/07/01 01:31:55;;;;;;;8.57;5.40;;;15.70;99.90;;;;;;5033860;28;20427;-81
2022/07/01 01:34:21;;;;;;;13.97;6.60;;;15.70;99.90;;;;;;5034055;28;20195;-82
2022/07/01 01:36:46;;;;;;;10.60;6.70;;;15.70;99.90;;;;;;5034785;28;20185;-81
2022/07/01 01:39:21;;;;;;;11.37;6.83;;;15.70;99.90;;;;;;5033889;28;20200;-83
2022/07/01 01:41:47;;;;;;;11.37;6.70;;;15.70;99.90;;;;;;5034544;28;20195;-83
2022/07/01 01:44:13;;;;;;;10.90;6.30;;;15.80;99.90;;;;;;5031080;28;20453;-81
2022/07/01 01:46:39;;;;;;;9.57;6.17;;;15.80;99.90;;;;;;5033790;28;21052;-82
2022/07/01 01:49:06;;;;;;;11.00;7.23;;;15.80;99.90;;;;;;5033708;28;20483;-83
2022/07/01 01:51:32;;;;;;;10.23;6.07;;;15.70;99.90;;;;;;5034610;28;20191;-82
2022/07/01 01:53:59;;;;;;;7.60;5.33;;;15.80;99.90;;;;;;5036084;28;20415;-81
2022/07/01 01:56:25;;;;;;;8.20;5.30;;;15.70;99.90;;;;;;5033955;28;20434;-81
2022/07/01 01:58:51;;;;;;;10.60;6.57;;;15.70;99.90;;;;;;5033755;28;20474;-83
2022/07/01 02:01:19;;;;;;;7.80;5.43;;;15.70;99.90;;;;;;5036547;28;20477;-82
2022/07/01 02:03:46;;;;;;;11.63;5.40;;;15.70;99.90;;;;;;5037856;28;20419;-83
2022/07/01 02:06:13;;;;;;;10.03;5.73;;;15.60;99.90;;;;;;5037414;28;20985;-81
2022/07/01 02:08:39;;;;;;;10.33;5.10;;;15.50;99.90;;;;;;5038783;28;20439;-83
2022/07/01 02:11:06;;;;;;;10.33;5.00;;;15.60;99.90;;;;;;5038189;28;20489;-83
2022/07/01 02:13:32;;;;;;;9.17;5.30;;;15.60;99.90;;;;;;5038297;28;21139;-83
2022/07/01 02:15:57;;;;;;;8.53;4.63;;;15.60;99.90;;;;;;5039488;28;20425;-82
2022/07/01 02:18:23;;;;;;;7.73;4.03;;;15.60;99.90;;;;;;5037568;28;20842;-81
2022/07/01 02:20:49;;;;;;;7.50;3.50;;;15.70;99.90;;;;;;5022089;28;20180;-81
2022/07/01 02:23:15;;;;;;;11.37;4.07;;;15.70;99.90;;;;;;5036951;28;20474;-82
2022/07/01 02:25:41;;;;;;;5.07;3.43;;;15.70;99.90;;;;;;5037338;28;20176;-83
2022/07/01 02:28:07;;;;;;;6.73;4.40;;;15.70;99.90;;;;;;5036478;28;20442;-80
2022/07/01 02:30:36;;;;;;;5.53;3.57;;;15.70;99.90;;;;;;5036288;28;20419;-81
2022/07/01 02:33:05;;;;;;;5.90;3.30;;;15.70;99.90;;;;;;5036254;28;20184;-82
2022/07/01 02:35:39;;;;;;;5.07;3.43;;;15.70;99.90;;;;;;5037791;28;20447;-84
2022/07/01 02:38:06;;;;;;;10.80;3.33;;;15.70;99.90;;;;;;5037740;28;20434;-81
2022/07/01 02:40:33;;;;;;;6.57;3.27;;;15.60;99.90;;;;;;5038055;28;20415;-81
2022/07/01 02:42:59;;;;;;;6.57;3.70;;;15.60;99.90;;;;;;5036173;28;20454;-81
2022/07/01 02:45:25;;;;;;;7.47;3.40;;;15.70;99.90;;;;;;5036651;28;20473;-83
2022/07/01 02:47:51;;;;;;;5.57;4.00;;;15.70;99.90;;;;;;5035237;28;20435;-81
2022/07/01 02:50:18;;;;;;;8.43;3.27;;;15.70;99.90;;;;;;5037386;28;20637;-81
2022/07/01 02:52:45;;;;;;;4.43;2.37;;;15.80;99.90;;;;;;5035459;28;20808;-81
2022/07/01 02:55:12;;;;;;;6.73;3.47;;;15.70;99.90;;;;;;5035683;28;20419;-83
2022/07/01 02:57:39;;;;;;;4.37;3.07;;;15.70;99.90;;;;;;5035242;28;20501;-81
2022/07/01 03:00:07;;;;;;;6.50;3.00;;;15.70;99.90;;;;;;5037520;28;20431;-83
2022/07/01 03:02:32;;;;;;;5.43;3.17;;;15.70;99.90;;;;;;5035741;28;20459;-81
2022/07/01 03:04:59;;;;;;;4.07;2.87;;;15.70;99.90;;;;;;5035633;28;21028;-81
2022/07/01 03:07:24;;;;;;;5.27;3.57;;;15.80;99.90;;;;;;5036983;28;20227;-81
2022/07/01 03:09:50;;;;;;;5.90;3.30;;;15.80;99.90;;;;;;5037066;28;20780;-81
2022/07/01 03:12:27;;;;;;;5.27;3.20;;;15.80;99.90;;;;;;5035121;28;20199;-81
2022/07/01 03:14:59;;;;;;;6.37;3.53;;;15.80;99.90;;;;;;5035303;28;20501;-81
2022/07/01 03:19:51;;;;;;;8.60;3.93;;;15.90;99.90;;;;;;5051235;23;20498;-79
2022/07/01 03:22:18;;;;;;;8.10;3.00;;;15.80;99.90;;;;;;5050842;28;20271;-78
2022/07/01 03:24:43;;;;;;;7.23;3.10;;;15.90;99.90;;;;;;5056640;28;20410;-79
2022/07/01 03:27:09;;;;;;;5.07;3.10;;;15.90;99.90;;;;;;5056384;28;20798;-78
2022/07/01 03:29:35;;;;;;;5.27;3.30;;;15.90;99.90;;;;;;5056638;28;20196;-79
2022/07/01 03:32:00;;;;;;;3.53;2.63;;;15.90;99.90;;;;;;5056307;28;20203;-79
2022/07/01 03:34:26;;;;;;;6.63;2.87;;;15.90;99.90;;;;;;5055378;28;20258;-79
2022/07/01 03:36:51;;;;;;;3.90;2.80;;;16.00;99.90;;;;;;5056260;28;20176;-78
2022/07/01 03:39:17;;;;;;;4.30;2.90;;;16.00;99.90;;;;;;5071847;28;20710;-79
2022/07/01 03:41:44;;;;;;;5.43;2.93;;;16.00;99.90;;;;;;5056591;28;20207;-79
2022/07/01 03:44:09;;;;;;;6.83;2.97;;;16.00;99.90;;;;;;5056976;28;20642;-78
2022/07/01 03:46:35;;;;;;;4.30;2.70;;;16.00;99.90;;;;;;5056037;28;20417;-79
2022/07/01 03:49:02;;;;;;;4.50;2.77;;;16.00;99.90;;;;;;5056107;28;20192;-79
2022/07/01 03:51:27;;;;;;;7.77;2.30;;;16.00;99.90;;;;;;5055824;28;20881;-79
2022/07/01 03:56:38;;;;;;;4.97;2.70;;;16.00;99.90;;;;;;5055853;28;20458;-78
2022/07/01 03:59:03;;;;;;;3.97;2.03;;;16.00;99.90;;;;;;5055558;28;20442;-79
2022/07/01 04:01:29;;;;;;;4.50;2.30;;;16.00;99.90;;;;;;5055496;28;20176;-79
2022/07/01 04:03:54;;;;;;;4.50;2.30;;;16.00;99.90;;;;;;5055888;28;20211;-78
2022/07/01 04:06:20;;;;;;;5.73;2.50;;;15.90;99.90;;;;;;5054929;28;20607;-79
2022/07/01 04:08:47;;;;;;;4.30;2.57;;;15.90;99.90;;;;;;5055555;28;20203;-78
2022/07/01 04:11:13;;;;;;;4.73;2.80;;;15.80;99.90;;;;;;5055139;28;20167;-78
2022/07/01 04:13:39;;;;;;;3.87;2.07;;;15.80;99.90;;;;;;5054695;28;20410;-78
2022/07/01 04:16:05;;;;;;;4.30;2.73;;;15.70;99.90;;;;;;5054713;28;20174;-78
2022/07/01 04:18:32;;;;;;;3.20;2.10;;;15.60;99.90;;;;;;5070381;28;20457;-78
2022/07/01 04:23:42;;;;;;;3.70;2.43;;;15.70;99.90;;;;;;5054384;28;20417;-78
2022/07/01 04:26:08;;;;;;;5.30;2.70;;;15.70;99.90;;;;;;5054659;28;20410;-78
2022/07/01 04:28:34;;;;;;;5.73;2.60;;;15.70;99.90;;;;;;5054383;28;20282;-78
2022/07/01 04:30:59;;;;;;;6.83;2.17;;;15.60;99.90;;;;;;5055017;28;20613;-79
2022/07/01 04:33:25;;;;;;;4.43;2.03;;;15.60;99.90;;;;;;5054398;28;20207;-79
2022/07/01 04:35:51;;;;;;;4.73;2.40;;;15.60;99.90;;;;;;5054230;28;20176;-78
2022/07/01 04:38:17;;;;;;;3.70;2.43;;;15.60;99.90;;;;;;5054466;28;20447;-78
2022/07/01 04:41:58;;;;;;;4.97;1.97;;;15.60;99.90;;;;;;5054418;28;20655;-78
2022/07/01 04:43:28;;;;;;;4.13;2.20;;;15.60;99.90;;;;;;5054138;28;20293;-79
2022/07/01 04:45:54;;;;;;;3.23;1.70;;;15.60;99.90;;;;;;5053961;28;20964;-79
2022/07/01 04:48:20;;;;;;;3.13;1.90;;;15.60;99.90;;;;;;5054230;28;20434;-78
2022/07/01 04:50:46;;;;;;;2.97;2.23;;;15.60;99.90;;;;;;5054587;28;20421;-78
2022/07/01 04:53:13;;;;;;;4.93;3.27;;;15.70;99.90;;;;;;5053156;28;20430;-79
2022/07/01 04:55:38;;;;;;;6.43;2.40;;;15.70;99.90;;;;;;5053944;28;20175;-78
2022/07/01 04:58:04;;;;;;;8.13;3.20;;;15.70;99.90;;;;;;5052805;28;20442;-78
2022/07/01 05:00:30;;;;;;;4.53;3.30;;;15.70;99.90;;;;;;5054170;28;20180;-78
2022/07/01 05:02:55;;;;;;;3.40;2.00;;;15.70;99.90;;;;;;5054366;28;20209;-78
2022/07/01 05:05:21;;;;;;;4.47;2.10;;;15.70;99.90;;;;;;5070923;28;20233;-79
2022/07/01 05:07:47;;;;;;;4.40;2.20;;;15.80;99.90;;;;;;5055165;28;20206;-79
2022/07/01 05:10:13;;;;;;;5.20;2.50;;;15.80;99.90;;;;;;5055479;28;20179;-79
2022/07/01 05:12:38;;;;;;;3.33;2.43;;;15.90;99.90;;;;;;5056042;28;20187;-79
2022/07/01 05:15:04;;;;;;;5.10;2.23;;;15.90;99.90;;;;;;5055569;28;20187;-79
2022/07/01 05:22:58;;;;;;;4.20;2.27;;;16.20;99.90;;;;;;5055419;28;20535;-78
2022/07/01 05:25:24;;;;;;;4.20;2.53;;;16.30;99.90;;;;;;5055569;28;20418;-79
2022/07/01 05:27:49;;;;;;;4.70;2.23;;;16.30;99.90;;;;;;5054949;28;20235;-79
2022/07/01 05:30:15;;;;;;;3.97;2.57;;;16.50;99.90;;;;;;5055603;28;20266;-79
2022/07/01 05:32:40;;;;;;;4.00;2.30;;;16.50;99.90;;;;;;5054097;28;20231;-79
2022/07/01 05:35:06;;;;;;;8.60;2.60;;;16.60;99.90;;;;;;5057682;28;20180;-79
2022/07/01 05:37:32;;;;;;;8.40;2.90;;;16.70;99.90;;;;;;5074067;28;20183;-79
2022/07/01 05:39:57;;;;;;;3.80;2.30;;;16.70;99.90;;;;;;5059539;28;20183;-79
2022/07/01 05:42:23;;;;;;;3.60;1.83;;;16.70;99.90;;;;;;5059260;28;20199;-79
2022/07/01 05:44:48;;;;;;;5.30;2.73;;;16.70;99.90;;;;;;5059480;28;20187;-79
2022/07/01 05:47:14;;;;;;;3.87;2.40;;;16.70;99.90;;;;;;5059316;28;20546;-80
2022/07/01 05:49:39;;;;;;;7.30;3.40;;;16.70;99.90;;;;;;5059631;28;20196;-80
2022/07/01 05:52:05;;;;;;;3.57;2.13;;;16.60;99.90;;;;;;5059285;28;20180;-79
2022/07/01 05:54:31;;;;;;;5.07;2.63;;;16.60;99.90;;;;;;5060090;28;20179;-79
2022/07/01 05:56:56;;;;;;;3.73;2.10;;;16.60;99.90;;;;;;5058219;28;20639;-79
2022/07/01 05:59:22;;;;;;;3.60;2.23;;;16.60;99.90;;;;;;5061708;28;20199;-81
2022/07/01 06:01:50;;;;;;;4.50;2.70;;;16.70;99.90;;;;;;5061521;28;20237;-81
2022/07/01 06:04:16;;;;;;;4.20;2.80;;;16.70;99.90;;;;;;5061612;28;20220;-80
2022/07/01 06:06:42;;;;;;;5.10;2.50;;;16.70;99.90;;;;;;5059578;28;20409;-80
2022/07/01 06:09:07;;;;;;;5.10;2.40;;;16.80;99.90;;;;;;5055366;28;20430;-80
2022/07/01 06:11:33;;;;;;;4.70;2.47;;;16.90;99.90;;;;;;5055310;28;20684;-79
2022/07/01 06:13:59;;;;;;;6.80;2.53;;;16.90;99.90;;;;;;5055266;28;20172;-80
2022/07/01 06:16:24;;;;;;;4.33;2.33;;;17.00;99.90;;;;;;5054761;28;20547;-79
2022/07/01 06:18:50;;;;;;;8.27;2.43;;;17.20;99.90;;;;;;5054881;28;20219;-80
2022/07/01 06:21:16;;;;;;;3.90;2.63;;;17.10;99.90;;;;;;5055867;28;20635;-80
2022/07/01 06:23:42;;;;;;;4.80;2.23;;;17.10;99.90;;;;;;5056909;28;20291;-80
2022/07/01 06:26:08;;;;;;;4.43;3.00;;;17.20;99.90;;;;;;5071112;28;20968;-79
2022/07/01 06:28:35;;;;;;;3.80;2.00;;;17.20;99.90;;;;;;5056581;28;20245;-80
2022/07/01 06:31:00;;;;;;;4.97;2.80;;;17.20;99.90;;;;;;5056486;28;20199;-80
2022/07/01 06:33:29;;;;;;;3.67;1.90;;;17.10;99.90;;;;;;5054891;28;20433;-80
2022/07/01 06:35:55;;;;;;;3.80;2.43;;;17.20;99.90;;;;;;5056163;28;20164;-79
2022/07/01 06:38:20;;;;;;;4.00;2.70;;;17.20;99.90;;;;;;5056241;28;20479;-80
2022/07/01 06:41:26;;;;;;;3.83;2.37;;;17.30;99.90;;;;;;5055845;28;20186;-79
2022/07/01 06:43:31;;;;;;;4.80;2.50;;;17.30;99.90;;;;;;5055687;28;20678;-79
2022/07/01 06:45:57;;;;;;;3.70;2.83;;;17.30;99.90;;;;;;5054732;28;20417;-79
2022/07/01 06:48:23;;;;;;;3.20;2.53;;;17.40;99.90;;;;;;5055427;28;20744;-81
2022/07/01 06:50:48;;;;;;;4.30;2.40;;;17.50;99.90;;;;;;5055849;28;20175;-79
2022/07/01 06:53:14;;;;;;;4.83;2.60;;;17.40;99.90;;;;;;5055825;28;20207;-80
2022/07/01 06:55:39;;;;;;;6.20;4.20;;;17.40;99.90;;;;;;5055345;28;20168;-79
2022/07/01 06:58:05;;;;;;;6.50;3.60;;;17.30;99.90;;;;;;5055369;28;20192;-79
2022/07/01 07:00:31;;;;;;;4.60;3.33;;;17.30;99.90;;;;;;5055502;28;20781;-79
2022/07/01 07:02:56;;;;;;;4.80;3.27;;;17.30;99.90;;;;;;5055253;28;20230;-79
2022/07/01 07:05:22;;;;;;;5.50;3.30;;;17.40;99.90;;;;;;5055374;28;20216;-79
2022/07/01 07:07:47;;;;;;;4.80;3.50;;;17.60;99.90;;;;;;5054703;28;20275;-79
2022/07/01 07:10:13;;;;;;;4.13;2.80;;;17.70;99.90;;;;;;5053816;28;20179;-79
2022/07/01 07:12:38;;;;;;;4.47;3.40;;;17.80;99.90;;;;;;5053784;28;20528;-79
2022/07/01 07:15:04;;;;;;;4.83;3.60;;;17.80;99.90;;;;;;5054752;28;20172;-79
2022/07/01 07:17:30;;;;;;;4.70;3.37;;;17.80;99.90;;;;;;5054187;28;20206;-79
2022/07/01 07:19:56;;;;;;;5.03;3.57;;;17.80;99.90;;;;;;5054504;28;20471;-79
2022/07/01 07:22:22;;;;;;;7.97;3.63;;;17.80;99.90;;;;;;5052718;28;20537;-79
2022/07/01 07:24:48;;;;;;;6.67;3.90;;;17.80;99.90;;;;;;5051948;28;20242;-79
2022/07/01 07:27:13;;;;;;;6.57;3.60;;;17.80;99.90;;;;;;5053836;28;20438;-79
2022/07/01 07:29:39;;;;;;;7.07;3.23;;;17.60;99.90;;;;;;5054170;28;20207;-78
2022/07/01 07:32:05;;;;;;;7.63;3.63;;;17.60;99.90;;;;;;5039867;28;20199;-78
2022/07/01 07:34:30;;;;;;;6.53;3.30;;;17.60;99.90;;;;;;5044184;28;20191;-79
2022/07/01 07:36:56;;;;;;;7.33;5.00;;;17.50;99.90;;;;;;5051958;28;20175;-79
2022/07/01 07:39:22;;;;;;;5.87;4.10;;;17.50;99.90;;;;;;5053999;28;20199;-78
2022/07/01 07:41:47;;;;;;;6.73;4.97;;;17.40;99.90;;;;;;5053380;28;20239;-79
2022/07/01 07:44:13;;;;;;;6.43;3.80;;;17.50;99.90;;;;;;5053914;28;20590;-79
2022/07/01 07:46:38;;;;;;;8.40;4.30;;;17.50;99.90;;;;;;5053361;28;20200;-80
2022/07/01 07:49:04;;;;;;;5.83;3.97;;;17.60;99.90;;;;;;5053336;28;20210;-78
2022/07/01 07:51:30;;;;;;;5.30;4.13;;;17.70;99.90;;;;;;5053198;28;20694;-79
2022/07/01 07:53:55;;;;;;;7.47;3.30;;;18.00;99.90;;;;;;5053103;28;20176;-79
2022/07/01 07:56:21;;;;;;;12.33;4.13;;;18.20;99.90;;;;;;5052745;28;20172;-79
2022/07/01 07:58:46;;;;;;;5.20;3.53;;;18.40;99.90;;;;;;5034320;28;20212;-80
2022/07/01 08:01:12;;;;;;;5.90;3.50;;;18.60;99.90;;;;;;5052997;28;20553;-80
2022/07/01 08:03:37;;;;;;;3.93;3.00;;;18.70;99.90;;;;;;5053102;28;20199;-79
2022/07/01 08:06:03;;;;;;;5.87;3.50;;;18.70;99.90;;;;;;5051633;28;20611;-79
2022/07/01 08:08:29;;;;;;;4.43;2.80;;;18.80;99.90;;;;;;5049125;28;20271;-80
2022/07/01 08:10:54;;;;;;;4.97;3.87;;;18.80;99.90;;;;;;5049293;28;20559;-79
2022/07/01 08:13:20;;;;;;;7.00;3.73;;;18.80;99.90;;;;;;5044869;28;20194;-80
2022/07/01 08:15:46;;;;;;;6.00;3.30;;;18.90;99.90;;;;;;5053015;28;20234;-79
2022/07/01 08:18:11;;;;;;;4.17;2.80;;;19.00;99.90;;;;;;5052919;28;20219;-80
2022/07/01 08:20:37;;;;;;;4.90;3.40;;;19.20;99.90;;;;;;5053101;28;20214;-79
2022/07/01 08:23:02;;;;;;;6.37;2.83;;;19.80;99.90;;;;;;5035028;28;20346;-79
2022/07/01 08:25:28;;;;;;;4.20;2.80;;;21.10;99.90;;;;;;5051428;28;20222;-79
2022/07/01 08:27:54;;;;;;;3.53;2.97;;;21.90;99.90;;;;;;5052580;28;20570;-79
2022/07/01 08:30:19;;;;;;;4.00;3.23;;;22.00;99.90;;;;;;5052736;28;20263;-78
2022/07/01 08:32:45;;;;;;;3.20;2.27;;;21.60;99.90;;;;;;5053022;28;20200;-79
2022/07/01 08:35:11;;;;;;;5.43;3.57;;;21.50;99.90;;;;;;5034850;28;20629;-78
2022/07/01 08:37:36;;;;;;;4.70;3.07;;;21.00;99.90;;;;;;5051930;28;20183;-80
2022/07/01 08:40:02;;;;;;;7.00;2.97;;;20.50;99.90;;;;;;5052380;28;20183;-83
2022/07/01 08:42:28;;;;;;;3.77;2.40;;;20.00;99.90;;;;;;5052355;28;20333;-81
2022/07/01 08:44:54;;;;;;;3.63;2.83;;;19.80;99.90;;;;;;5052318;28;20475;-80
2022/07/01 08:47:19;;;;;;;4.00;2.50;;;19.70;99.90;;;;;;5052031;28;20172;-80
2022/07/01 08:49:45;;;;;;;4.33;2.63;;;19.80;99.90;;;;;;5052282;28;20297;-80
2022/07/01 08:52:11;;;;;;;4.20;3.23;;;19.90;99.90;;;;;;5052045;28;20187;-81
2022/07/01 08:54:38;;;;;;;8.10;3.10;;;20.80;99.90;;;;;;5052358;28;20525;-81
2022/07/01 08:57:04;;;;;;;3.50;3.20;;;21.40;99.90;;;;;;5051892;28;20252;-81
2022/07/01 08:59:30;;;;;;;3.20;2.43;;;22.80;99.90;;;;;;5051231;28;20526;-80
2022/07/01 09:01:58;;;;;;;4.53;2.60;;;23.40;99.90;;;;;;5051793;28;20283;-80
2022/07/01 09:04:24;;;;;;;3.87;2.33;;;23.40;99.90;;;;;;5052384;28;20406;-81
2022/07/01 09:06:50;;;;;;;4.50;2.70;;;23.50;99.90;;;;;;5050148;28;20414;-81
2022/07/01 09:09:19;;;;;;;4.80;2.50;;;23.50;99.90;;;;;;5051831;28;20192;-80
2022/07/01 09:11:55;;;;;;;3.10;2.40;;;23.20;99.90;;;;;;5051978;28;20179;-79
2022/07/01 09:14:23;;;;;;;4.17;2.93;;;22.90;99.90;;;;;;5051945;28;20409;-78
2022/07/01 09:16:51;;;;;;;2.90;2.00;;;22.70;99.90;;;;;;5051760;28;20418;-79
2022/07/01 09:19:19;;;;;;;3.60;2.47;;;22.20;99.90;;;;;;5032022;28;20474;-79
2022/07/01 09:21:53;;;;;;;4.60;3.17;;;21.70;99.90;;;;;;5051949;28;20473;-81
2022/07/01 09:24:42;;;;;;;4.97;2.47;;;21.50;99.90;;;;;;5051859;28;20414;-81
2022/07/01 09:27:11;;;;;;;3.40;2.90;;;21.40;99.90;;;;;;5051201;28;20418;-82
2022/07/01 09:29:39;;;;;;;4.57;2.47;;;21.30;99.90;;;;;;5050609;28;20823;-81
2022/07/01 09:32:07;;;;;;;4.40;2.90;;;21.70;99.90;;;;;;5054337;28;20783;-81
2022/07/01 09:34:42;;;;;;;3.03;2.70;;;22.60;99.90;;;;;;5054857;28;20410;-80
2022/07/01 09:37:10;;;;;;;4.17;2.63;;;22.90;99.90;;;;;;5055285;28;20398;-81
2022/07/01 09:40:03;;;;;;;3.90;3.17;;;22.60;99.90;;;;;;5054946;28;20434;-81
2022/07/01 09:42:29;;;;;;;4.87;3.37;;;22.40;99.90;;;;;;5051662;28;20465;-82
2022/07/01 09:44:57;;;;;;;5.07;3.10;;;22.30;99.90;;;;;;5053051;28;20777;-80
2022/07/01 09:47:23;;;;;;;4.60;3.03;;;22.10;99.90;;;;;;5052898;28;20186;-80
2022/07/01 09:49:49;;;;;;;4.67;3.73;;;21.70;99.90;;;;;;5053334;28;20460;-80
2022/07/01 09:52:16;;;;;;;5.10;3.60;;;22.50;99.90;;;;;;5052340;28;20495;-79
2022/07/01 09:54:43;;;;;;;4.53;3.33;;;23.60;99.90;;;;;;5053101;28;20497;-80
2022/07/01 09:57:08;;;;;;;3.90;3.50;;;23.70;99.90;;;;;;5053729;28;20410;-81
2022/07/01 09:59:35;;;;;;;6.53;4.23;;;23.60;99.90;;;;;;5035788;28;20444;-81
2022/07/01 10:02:01;;;;;;;6.77;3.90;;;23.70;99.90;;;;;;5053620;28;20740;-83
2022/07/01 10:04:30;;;;;;;4.93;3.97;;;25.10;99.90;;;;;;5053181;28;20410;-83
2022/07/01 10:07:03;;;;;;;4.93;4.30;;;27.10;99.90;;;;;;5055250;28;20406;-81
2022/07/01 10:10:03;;;;;;;4.10;3.50;;;27.80;99.90;;;;;;5055606;28;20436;-81
2022/07/01 10:12:43;;;;;;;6.50;4.63;;;27.80;99.90;;;;;;5037264;28;20442;-81
2022/07/01 10:15:11;;;;;;;4.53;2.80;;;27.40;99.90;;;;;;5054437;28;20394;-82
2022/07/01 10:17:44;;;;;;;4.37;3.40;;;26.90;99.90;;;;;;5053437;28;20418;-83
2022/07/01 10:20:13;;;;;;;4.00;3.47;;;27.00;98.30;;;;;;5053949;28;20953;-81
2022/07/01 10:22:40;;;;;;;4.07;3.20;;;26.30;98.20;;;;;;5055825;28;20527;-81
2022/07/01 10:25:32;;;;;;;3.90;3.13;;;27.20;99.90;;;;;;5057649;28;20425;-82
2022/07/01 10:28:19;;;;;;;5.80;3.33;;;27.70;96.90;;;;;;5057145;28;20426;-81
2022/07/01 10:30:57;;;;;;;3.50;2.90;;;27.50;98.30;;;;;;5057530;28;20402;-81
2022/07/01 10:33:47;;;;;;;3.53;2.97;;;26.50;95.20;;;;;;5054732;28;20897;-81
2022/07/01 10:36:17;;;;;;;4.53;3.93;;;25.40;98.80;;;;;;5052348;28;20418;-81
2022/07/01 10:39:10;;;;;;;6.37;3.70;;;24.60;99.90;;;;;;5054599;28;20441;-80
2022/07/01 10:41:41;;;;;;;8.30;3.73;;;23.70;99.90;;;;;;5054275;28;20399;-81
2022/07/01 10:44:14;;;;;;;3.60;2.70;;;23.10;99.90;;;;;;5054591;28;20406;-81
2022/07/01 10:47:04;;;;;;;4.53;3.33;;;22.50;99.90;;;;;;5054093;28;20394;-81
2022/07/01 10:49:36;;;;;;;7.23;3.90;;;22.20;99.90;;;;;;5043467;28;20446;-79
2022/07/01 10:52:10;;;;;;;3.30;2.70;;;22.00;99.90;;;;;;5053854;28;20429;-81
2022/07/01 10:54:36;;;;;;;7.10;3.07;;;22.20;99.90;;;;;;5054382;28;20413;-80
2022/07/01 10:57:19;;;;;;;3.47;2.90;;;22.90;99.90;;;;;;5053642;28;20413;-80
2022/07/01 10:59:56;;;;;;;3.83;2.87;;;23.50;99.90;;;;;;5054036;28;20282;-80
2022/07/01 11:02:26;;;;;;;6.37;3.23;;;24.00;99.90;;;;;;5053909;28;20453;-80
2022/07/01 11:04:55;;;;;;;3.60;2.20;;;24.80;99.90;;;;;;5053747;28;20828;-80
2022/07/01 11:07:24;;;;;;;4.30;2.57;;;24.90;99.90;;;;;;5053412;28;20422;-80
2022/07/01 11:09:50;;;;;;;6.83;3.47;;;24.40;99.90;;;;;;5053950;28;20430;-80
2022/07/01 11:12:16;;;;;;;2.77;1.63;;;23.90;99.90;;;;;;5053902;28;20416;-80
2022/07/01 11:14:43;;;;;;;3.80;2.03;;;23.60;99.90;;;;;;5053948;28;20804;-80
2022/07/01 11:17:09;;;;;;;2.77;1.87;;;23.80;99.90;;;;;;5052915;28;20418;-80
2022/07/01 11:19:35;;;;;;;5.83;2.30;;;24.10;99.90;;;;;;5052439;28;20458;-80
2022/07/01 11:22:02;;;;;;;7.60;1.90;;;24.10;99.90;;;;;;5033776;28;20470;-81
2022/07/01 11:24:28;;;;;;;3.57;2.07;;;24.00;99.90;;;;;;5053739;28;20430;-80
2022/07/01 11:27:05;;;;;;;3.53;1.80;;;24.20;99.90;;;;;;5054713;28;20414;-79
2022/07/01 11:29:30;;;;;;;5.60;1.50;;;24.20;99.90;;;;;;5055173;28;20948;-80
2022/07/01 11:31:56;;;;;;;2.73;1.20;;;24.10;99.90;;;;;;5054937;28;20488;-81
2022/07/01 11:34:22;;;;;;;3.70;1.30;;;23.70;99.90;;;;;;5054275;28;20186;-82
2022/07/01 11:39:35;;;;;;;4.67;2.13;;;23.70;99.90;;;;;;5054515;28;20206;-81
2022/07/01 11:42:06;;;;;;;3.10;1.70;;;23.80;99.90;;;;;;5053731;28;21021;-83
2022/07/01 11:44:40;;;;;;;2.33;1.53;;;23.90;98.70;;;;;;5055431;28;20776;-82
2022/07/01 11:47:08;;;;;;;2.70;1.60;;;23.60;99.90;;;;;;5055165;28;20417;-83
2022/07/01 11:49:42;;;;;;;2.40;1.40;;;23.70;99.90;;;;;;5055714;28;20438;-83
2022/07/01 11:52:10;;;;;;;6.67;1.97;;;24.00;99.90;;;;;;5055590;28;20421;-82
2022/07/01 11:54:38;;;;;;;2.43;1.13;;;23.80;99.90;;;;;;5055111;28;20504;-82
2022/07/01 11:57:11;;;;;;;2.00;0.90;;;23.40;99.90;;;;;;5054787;28;20513;-82
2022/07/01 11:59:38;;;;;;;3.37;1.10;;;23.10;99.90;;;;;;5055678;28;20465;-83
2022/07/01 12:02:04;;;;;;;3.47;1.40;;;23.00;99.90;;;;;;5055121;28;20450;-83
2022/07/01 12:04:30;;;;;;;3.83;1.40;;;23.10;99.90;;;;;;5054715;28;20420;-83
2022/07/01 12:06:57;;;;;;;2.20;1.10;;;23.10;99.90;;;;;;5070020;28;20796;-81
2022/07/01 12:09:23;;;;;;;2.53;1.00;;;23.10;99.90;;;;;;5054554;28;20196;-80
2022/07/01 12:11:51;;;;;;;2.63;1.30;;;23.30;99.90;;;;;;5053324;28;20514;-81
2022/07/01 12:14:25;;;;;;;3.50;1.20;;;23.70;99.90;;;;;;5053864;28;20253;-80
2022/07/01 12:16:53;;;;;;;2.50;1.30;;;24.10;99.90;;;;;;5035385;28;20426;-81
2022/07/01 12:19:19;;;;;;;2.80;1.27;;;24.20;99.90;;;;;;5052976;28;20453;-81
2022/07/01 12:21:53;;;;;;;3.60;1.40;;;24.30;98.50;;;;;;5052901;28;20853;-80
2022/07/01 12:24:21;;;;;;;2.60;1.57;;;24.30;98.60;;;;;;5053235;28;20175;-82
2022/07/01 12:26:50;;;;;;;2.97;1.20;;;24.10;98.20;;;;;;5053627;28;20417;-82
2022/07/01 12:29:17;;;;;;;2.47;1.10;;;24.00;98.60;;;;;;5053367;28;20485;-82
2022/07/01 12:31:44;;;;;;;2.70;1.30;;;24.00;97.40;;;;;;5053082;28;20417;-82
2022/07/01 12:34:09;;;;;;;3.77;1.17;;;24.10;99.70;;;;;;5053017;28;20415;-82
2022/07/01 12:36:35;;;;;;;3.13;1.27;;;24.00;98.40;;;;;;5068045;28;20425;-82
2022/07/01 12:39:06;;;;;;;2.67;1.27;;;24.00;98.10;;;;;;5053008;28;20194;-82
2022/07/01 12:41:34;;;;;;;2.30;1.30;;;24.00;96.50;;;;;;5052584;28;20217;-81
2022/07/01 12:44:04;;;;;;;3.33;1.10;;;23.90;98.20;;;;;;5051926;28;20422;-83
2022/07/01 12:46:31;;;;;;;3.47;1.30;;;23.60;95.90;;;;;;5063152;22;20502;-75
2022/07/01 12:48:58;;;;;;;2.50;1.10;;;23.80;97.00;;;;;;5005880;28;20466;-76
2022/07/01 12:51:32;;;;;;;4.03;1.23;;;24.10;97.40;;;;;;5013964;28;20979;-76
2022/07/01 12:53:58;;;;;;;2.50;1.33;;;24.30;97.70;;;;;;5016179;28;20421;-76
2022/07/01 12:56:27;;;;;;;2.77;1.20;;;24.40;96.30;;;;;;5013614;28;20956;-75
2022/07/01 12:58:53;;;;;;;3.70;1.10;;;24.40;93.60;;;;;;5006133;28;20926;-77
2022/07/01 13:01:20;;;;;;;3.60;1.20;;;24.30;96.20;;;;;;5027856;28;20466;-76
2022/07/01 13:03:46;;;;;;;4.50;1.10;;;24.40;97.10;;;;;;5030610;28;20993;-75